KDDC/DDC METAR and TAF weather

Enter ICAO airport designator
Station Type Date Time Source
KDDC METAR 2021/10/22 17:52 UTC NOAA

KDDC 221752Z AUTO 19009KT 10SM CLR 21/09 A3002 RMK AO2 SLP155 T02060094 10211 20039 58018


Station Type Date Time Source
KDDC Decoded METAR 2021/10/22 17:52 UTC NOAA

DODGE CITY REGIONAL AIRPORT, KS, United States (KDDC) 37-46N 99-58W 789M
Oct 22, 2021 - 01:52 PM EDT / 2021.10.22 1752 UTC
Wind: from the S (190 degrees) at 10 MPH (9 KT):0
Visibility: 10 mile(s):0
Sky conditions: clear
Temperature: 69.1 F (20.6 C)
Dew Point: 48.9 F (9.4 C)
Relative Humidity: 48%
Pressure (altimeter): 30.02 in. Hg (1016 hPa)
Pressure tendency: 0.05 inches (1.8 hPa) lower than three hours ago
ob: KDDC 221752Z AUTO 19009KT 10SM CLR 21/09 A3002 RMK AO2 SLP155 T02060094 10211 20039 58018
cycle: 18

Station Type Date Time Source
KDDC TAF 2021/10/22 18:22 UTC NOAA

TAF KDDC 221720Z 2218/2318 20009KT P6SM FEW250
FM222100 17008KT P6SM FEW250
FM231500 17008KT P6SM SCT045
FM231700 19010KT P6SM SCT090

Example: see airport list